Time;durP1;ratioP1;P1;durP2;ratioP2;P2;SDS_P1;SDS_P2;PMS_P1;PMS_P2;Temp;Humidity;BMP_temperature;BMP_pressure;BME280_temperature;BME280_humidity;BME280_pressure;Samples;Min_cycle;Max_cycle;Signal;HPM_P1;HPM_P2
2023/01/03 00:01:33;;;;;;;;;;;;;;;5.18;83.80;100773.19;5092211;28;19920;-41
2023/01/03 00:03:59;;;;;;;;;;;;;;;5.17;83.80;100775.97;5092190;28;19912;-42
2023/01/03 00:06:32;;;;;;;;;;;;;;;5.33;82.86;100772.69;5092223;28;19968;-42
2023/01/03 00:08:58;;;;;;;;;;;;;;;5.45;81.98;100775.03;5092442;28;20007;-42
2023/01/03 00:14:12;;;;;;;;;;;;;;;5.11;82.66;100772.06;5092129;28;19951;-43
2023/01/03 00:16:37;;;;;;;;;;;;;;;5.34;81.84;100774.38;5091795;28;20372;-43
2023/01/03 00:19:06;;;;;;;;;;;;;;;5.35;81.64;100779.53;5091586;28;20077;-43
2023/01/03 00:21:32;;;;;;;;;;;;;;;5.28;81.43;100775.78;5092230;28;19969;-42
2023/01/03 00:23:57;;;;;;;;;;;;;;;5.33;79.81;100776.19;5091774;28;19916;-42
2023/01/03 00:26:22;;;;;;;;;;;;;;;4.86;81.18;100781.44;5091584;28;19912;-42
2023/01/03 00:28:48;;;;;;;;;;;;;;;4.83;81.32;100777.25;5091891;28;19912;-42
2023/01/03 00:31:13;;;;;;;;;;;;;;;4.71;82.52;100770.47;5091687;28;19912;-43
2023/01/03 00:33:39;;;;;;;;;;;;;;;4.57;82.72;100763.84;5091629;28;19942;-42
2023/01/03 00:36:05;;;;;;;;;;;;;;;4.58;83.17;100770.75;5090585;28;19916;-42
2023/01/03 00:38:30;;;;;;;;;;;;;;;4.61;83.04;100765.22;5091566;28;19923;-42
2023/01/03 00:41:03;;;;;;;;;;;;;;;4.58;83.09;100768.13;5091555;28;20310;-42
2023/01/03 00:43:28;;;;;;;;;;;;;;;4.69;83.17;100773.25;5091458;28;20405;-42
2023/01/03 00:45:53;;;;;;;;;;;;;;;4.70;82.94;100779.34;5091038;28;19912;-43
2023/01/03 00:48:18;;;;;;;;;;;;;;;4.67;83.10;100769.94;5091325;28;19922;-42
2023/01/03 00:50:44;;;;;;;;;;;;;;;4.68;82.81;100768.97;5091490;28;19989;-42
2023/01/03 00:53:09;;;;;;;;;;;;;;;4.65;82.32;100761.31;5091447;28;19912;-41
2023/01/03 00:55:35;;;;;;;;;;;;;;;4.44;83.81;100758.00;5091358;28;20362;-42
2023/01/03 00:58:00;;;;;;;;;;;;;;;4.48;83.55;100759.41;5090980;28;20010;-42
2023/01/03 01:00:25;;;;;;;;;;;;;;;4.30;83.23;100754.81;5091413;28;19943;-42
2023/01/03 01:02:53;;;;;;;;;;;;;;;4.30;82.84;100757.44;5091189;28;20026;-42
2023/01/03 01:05:19;;;;;;;;;;;;;;;4.38;82.83;100754.13;5091390;28;19912;-42
2023/01/03 01:07:44;;;;;;;;;;;;;;;4.34;82.97;100746.63;5091060;28;20383;-42
2023/01/03 01:10:09;;;;;;;;;;;;;;;4.33;83.37;100750.25;5090857;28;19912;-42
2023/01/03 01:12:35;;;;;;;;;;;;;;;4.35;83.23;100749.13;5090851;28;19985;-42
2023/01/03 01:15:00;;;;;;;;;;;;;;;4.38;83.26;100746.22;5090976;28;19912;-42
2023/01/03 01:17:27;;;;;;;;;;;;;;;4.41;83.51;100745.91;5090699;28;20350;-42
2023/01/03 01:19:52;;;;;;;;;;;;;;;4.50;82.41;100742.47;5090866;28;19920;-42
2023/01/03 01:22:18;;;;;;;;;;;;;;;4.33;84.05;100740.53;5090937;28;19918;-43
2023/01/03 01:24:43;;;;;;;;;;;;;;;4.44;84.55;100745.66;5090924;28;19912;-42
2023/01/03 01:27:08;;;;;;;;;;;;;;;4.30;85.27;100736.38;5090627;28;19912;-42
2023/01/03 01:29:34;;;;;;;;;;;;;;;4.46;84.57;100738.44;5091491;28;19935;-42
2023/01/03 01:32:00;;;;;;;;;;;;;;;4.60;84.03;100731.06;5091239;28;19912;-42
2023/01/03 01:34:26;;;;;;;;;;;;;;;4.41;84.54;100729.28;5091485;28;20340;-42
2023/01/03 01:36:51;;;;;;;;;;;;;;;4.43;85.03;100724.72;5091368;28;19999;-41
2023/01/03 01:39:19;;;;;;;;;;;;;;;4.54;84.60;100729.00;5091031;28;19994;-42
2023/01/03 01:44:48;;;;;;;;;;;;;;;4.49;83.62;100727.63;5091438;28;19995;-42
2023/01/03 01:47:21;;;;;;;;;;;;;;;4.27;83.89;100731.38;5093695;28;20002;-42
2023/01/03 01:49:48;;;;;;;;;;;;;;;4.19;84.24;100727.75;5095603;28;19916;-42
2023/01/03 01:52:16;;;;;;;;;;;;;;;4.29;83.44;100734.69;5095146;28;20419;-42
2023/01/03 01:54:41;;;;;;;;;;;;;;;4.27;82.93;100720.81;5095353;28;19962;-42
2023/01/03 01:57:11;;;;;;;;;;;;;;;4.11;83.78;100718.75;5095229;28;19915;-43
2023/01/03 01:59:36;;;;;;;;;;;;;;;3.84;84.35;100723.84;5094867;28;20003;-42
2023/01/03 02:02:01;;;;;;;;;;;;;;;3.81;85.44;100722.31;5094626;28;20027;-42
2023/01/03 02:04:30;;;;;;;;;;;;;;;3.58;86.25;100712.94;5093939;28;19968;-43
2023/01/03 02:06:56;;;;;;;;;;;;;;;4.00;84.66;100723.28;5094102;28;19923;-43
2023/01/03 02:09:21;;;;;;;;;;;;;;;3.91;84.25;100715.25;5094725;28;20374;-42
2023/01/03 02:13:04;;;;;;;;;;;;;;;3.88;85.03;100719.94;5094690;28;19920;-43
2023/01/03 02:14:56;;;;;;;;;;;;;;;3.95;85.53;100720.25;5093909;28;19963;-43
2023/01/03 02:17:25;;;;;;;;;;;;;;;3.83;84.96;100714.28;5094972;28;19920;-43
2023/01/03 02:19:50;;;;;;;;;;;;;;;3.82;85.53;100720.50;5095043;28;19939;-42
2023/01/03 02:22:19;;;;;;;;;;;;;;;3.85;85.36;100713.16;5094895;28;19919;-43
2023/01/03 02:24:59;;;;;;;;;;;;;;;3.86;84.77;100712.19;5094998;28;19912;-43
2023/01/03 02:27:36;;;;;;;;;;;;;;;3.92;85.26;100706.38;5094702;28;20006;-43
2023/01/03 02:30:04;;;;;;;;;;;;;;;3.92;83.38;100713.44;5094626;28;19958;-42
2023/01/03 02:32:36;;;;;;;;;;;;;;;3.85;83.54;100709.72;5094504;28;19912;-43
2023/01/03 02:35:05;;;;;;;;;;;;;;;3.76;85.53;100708.72;5094635;28;19916;-43
2023/01/03 02:37:30;;;;;;;;;;;;;;;3.58;85.95;100703.28;5094605;28;20249;-44
2023/01/03 02:40:07;;;;;;;;;;;;;;;3.63;85.94;100705.50;5094364;28;19920;-42
2023/01/03 02:42:57;;;;;;;;;;;;;;;3.51;87.47;100702.97;5094443;28;19912;-41
2023/01/03 02:45:31;;;;;;;;;;;;;;;3.48;87.50;100711.16;5093560;28;19919;-42
2023/01/03 02:48:00;;;;;;;;;;;;;;;3.47;86.90;100714.72;5094379;28;19916;-41
2023/01/03 02:50:29;;;;;;;;;;;;;;;3.40;87.44;100704.88;5094326;28;19991;-42
2023/01/03 02:53:00;;;;;;;;;;;;;;;3.58;86.01;100705.91;5094296;28;20002;-42
2023/01/03 02:55:27;;;;;;;;;;;;;;;3.79;85.48;100711.09;5094182;28;19977;-43
2023/01/03 02:58:00;;;;;;;;;;;;;;;3.56;84.95;100702.59;5092708;28;19912;-42
2023/01/03 03:00:27;;;;;;;;;;;;;;;3.35;85.43;100707.06;5093981;28;19923;-43
2023/01/03 03:02:55;;;;;;;;;;;;;;;3.27;87.37;100705.09;5094102;28;20006;-42
2023/01/03 03:05:23;;;;;;;;;;;;;;;3.21;87.80;100714.34;5094143;28;19962;-42
2023/01/03 03:07:48;;;;;;;;;;;;;;;3.18;88.45;100708.50;5094169;28;19919;-42
2023/01/03 03:13:18;;;;;;;;;;;;;;;3.25;88.64;100714.91;5094369;28;20072;-43
2023/01/03 03:15:43;;;;;;;;;;;;;;;3.43;87.89;100705.44;5093348;28;19912;-43
2023/01/03 03:18:11;;;;;;;;;;;;;;;3.48;86.98;100710.28;5093543;28;19974;-43
2023/01/03 03:26:10;;;;;;;;;;;;;;;3.18;87.15;100700.63;5094001;28;19970;-42
2023/01/03 03:28:37;;;;;;;;;;;;;;;3.04;87.87;100694.75;5092926;28;19976;-43
2023/01/03 03:31:12;;;;;;;;;;;;;;;3.03;87.23;100701.00;5098263;28;19959;-42
2023/01/03 03:33:41;;;;;;;;;;;;;;;3.24;87.26;100703.56;5104311;28;19998;-43
2023/01/03 03:36:09;;;;;;;;;;;;;;;3.19;86.76;100707.56;5113844;28;19922;-42
2023/01/03 03:38:44;;;;;;;;;;;;;;;2.81;87.61;100704.59;5113910;28;19916;-42
2023/01/03 03:47:14;;;;;;;;;;;;;;;3.36;85.14;100701.66;5097093;28;19919;-42
2023/01/03 03:49:42;;;;;;;;;;;;;;;3.13;85.96;100701.84;5093597;28;19935;-42
2023/01/03 03:52:11;;;;;;;;;;;;;;;2.98;86.75;100694.47;5093506;28;19952;-45
2023/01/03 03:54:39;;;;;;;;;;;;;;;2.69;88.44;100701.22;5093440;28;19922;-45
2023/01/03 03:57:07;;;;;;;;;;;;;;;3.00;87.65;100700.41;5093168;28;19912;-44
2023/01/03 03:59:32;;;;;;;;;;;;;;;2.95;86.35;100695.53;5094168;28;19916;-45
2023/01/03 04:01:59;;;;;;;;;;;;;;;2.89;87.42;100699.53;5094100;28;20012;-46
2023/01/03 04:04:28;;;;;;;;;;;;;;;2.89;87.44;100691.66;5092690;28;19981;-43
2023/01/03 04:06:54;;;;;;;;;;;;;;;2.77;88.30;100694.47;5092537;28;19918;-43
2023/01/03 04:09:19;;;;;;;;;;;;;;;2.85;88.38;100690.22;5092451;28;20003;-42
2023/01/03 04:11:44;;;;;;;;;;;;;;;2.79;88.31;100695.19;5092719;28;19912;-43
2023/01/03 04:14:10;;;;;;;;;;;;;;;2.65;87.68;100694.56;5092807;28;19950;-42
2023/01/03 04:16:36;;;;;;;;;;;;;;;2.71;88.37;100690.56;5092505;28;20375;-42
2023/01/03 04:19:02;;;;;;;;;;;;;;;2.58;89.41;100703.91;5092630;28;19927;-43
2023/01/03 04:21:27;;;;;;;;;;;;;;;2.52;88.87;100692.09;5092508;28;19912;-42
2023/01/03 04:23:52;;;;;;;;;;;;;;;2.52;89.94;100696.53;5092570;28;19912;-43
2023/01/03 04:26:17;;;;;;;;;;;;;;;2.36;89.98;100691.72;5092419;28;19912;-42
2023/01/03 04:28:43;;;;;;;;;;;;;;;2.53;89.85;100695.56;5091371;28;19912;-42
2023/01/03 04:31:08;;;;;;;;;;;;;;;2.71;90.14;100693.22;5092453;28;19912;-42
2023/01/03 04:33:33;;;;;;;;;;;;;;;2.83;89.72;100699.22;5093167;28;19912;-41
2023/01/03 04:35:59;;;;;;;;;;;;;;;2.72;89.46;100700.13;5091800;28;19954;-42
2023/01/03 04:38:24;;;;;;;;;;;;;;;2.88;89.28;100699.66;5090361;28;20291;-42
2023/01/03 04:40:49;;;;;;;;;;;;;;;2.84;88.87;100704.34;5090787;28;19938;-42
2023/01/03 04:45:58;;;;;;;;;;;;;;;2.77;89.35;100705.81;5091156;28;19931;-42
2023/01/03 04:48:24;;;;;;;;;;;;;;;2.67;89.27;100704.94;5090472;28;19912;-40
2023/01/03 04:50:52;;;;;;;;;;;;;;;2.59;89.80;100705.59;5090678;28;19942;-42
2023/01/03 04:53:18;;;;;;;;;;;;;;;2.68;89.79;100706.59;5092082;28;20004;-42
2023/01/03 04:55:50;;;;;;;;;;;;;;;2.60;89.78;100701.97;5092501;28;20435;-43
2023/01/03 04:58:16;;;;;;;;;;;;;;;2.45;90.58;100711.97;5091761;28;19912;-42
2023/01/03 05:00:41;;;;;;;;;;;;;;;2.44;91.07;100706.88;5092115;28;20299;-42
2023/01/03 05:03:06;;;;;;;;;;;;;;;2.21;90.77;100708.72;5091813;28;19951;-42
2023/01/03 05:05:32;;;;;;;;;;;;;;;2.16;90.70;100709.13;5091587;28;19970;-43
2023/01/03 05:07:57;;;;;;;;;;;;;;;2.08;90.26;100716.81;5091761;28;19919;-43
2023/01/03 05:10:22;;;;;;;;;;;;;;;2.07;90.89;100715.94;5090039;28;20306;-43
2023/01/03 05:12:58;;;;;;;;;;;;;;;2.06;90.66;100716.91;5082587;28;19916;-42
2023/01/03 05:15:24;;;;;;;;;;;;;;;2.05;90.33;100722.28;5091223;28;19908;-42
2023/01/03 05:17:49;;;;;;;;;;;;;;;2.02;91.30;100722.53;5091439;28;19959;-43
2023/01/03 05:25:51;;;;;;;;;;;;;;;2.07;91.10;100721.19;5091611;28;19954;-43
2023/01/03 05:28:18;;;;;;;;;;;;;;;2.10;90.24;100720.97;5091338;28;19973;-43
2023/01/03 05:30:43;;;;;;;;;;;;;;;2.31;90.72;100728.88;5091144;28;19933;-42
2023/01/03 05:33:08;;;;;;;;;;;;;;;2.35;90.30;100729.47;5091227;28;20004;-42
2023/01/03 05:35:34;;;;;;;;;;;;;;;2.42;88.28;100735.03;5091501;28;19923;-42
2023/01/03 05:37:59;;;;;;;;;;;;;;;2.76;91.70;100726.97;5090740;28;19912;-42
2023/01/03 05:40:24;;;;;;;;;;;;;;;4.58;100.00;100733.03;5090863;28;20415;-42
2023/01/03 05:42:50;;;;;;;;;;;;;;;6.72;88.85;100739.88;5090699;28;19950;-43
2023/01/03 05:45:15;;;;;;;;;;;;;;;8.11;68.23;100741.50;5091964;28;19912;-43
2023/01/03 05:47:40;;;;;;;;;;;;;;;5.81;69.41;100740.81;5090957;28;19916;-42
2023/01/03 05:50:06;;;;;;;;;;;;;;;4.05;76.02;100736.88;5091186;28;19916;-43
2023/01/03 05:52:31;;;;;;;;;;;;;;;3.10;80.71;100738.97;5091236;28;20652;-43
2023/01/03 05:54:56;;;;;;;;;;;;;;;2.35;85.91;100737.34;5091163;28;20346;-37
2023/01/03 05:57:21;;;;;;;;;;;;;;;2.15;87.60;100734.56;5090637;28;20422;-37
2023/01/03 05:59:47;;;;;;;;;;;;;;;2.06;89.57;100735.31;5090927;28;19916;-35
2023/01/03 06:02:12;;;;;;;;;;;;;;;2.04;90.07;100745.09;5091305;28;20402;-36
2023/01/03 06:04:37;;;;;;;;;;;;;;;2.06;89.72;100745.81;5091165;28;19916;-36
2023/01/03 06:07:03;;;;;;;;;;;;;;;2.19;88.97;100745.66;5091286;28;19912;-37
2023/01/03 06:09:28;;;;;;;;;;;;;;;2.25;89.58;100752.19;5091086;28;20006;-44
2023/01/03 06:11:53;;;;;;;;;;;;;;;2.30;88.89;100750.00;5076882;28;20284;-42
2023/01/03 06:14:18;;;;;;;;;;;;;;;2.53;90.29;100745.50;5090899;28;19961;-42
2023/01/03 06:19:28;;;;;;;;;;;;;;;3.85;88.79;100757.09;5089468;28;19926;-41
2023/01/03 06:21:53;;;;;;;;;;;;;;;4.24;85.26;100760.63;5089256;28;20010;-42
2023/01/03 06:24:19;;;;;;;;;;;;;;;4.76;84.82;100756.84;5090220;28;19920;-42
2023/01/03 06:26:44;;;;;;;;;;;;;;;4.88;77.81;100755.75;5090461;28;19912;-42
2023/01/03 06:29:09;;;;;;;;;;;;;;;4.57;78.70;100749.81;5089890;28;19912;-43
2023/01/03 06:31:34;;;;;;;;;;;;;;;4.90;79.54;100765.19;5090441;28;19912;-43
2023/01/03 06:34:00;;;;;;;;;;;;;;;5.59;76.05;100762.31;5093518;28;20307;-42
2023/01/03 06:36:25;;;;;;;;;;;;;;;5.05;77.95;100759.47;5093978;28;19934;-43
2023/01/03 06:38:51;;;;;;;;;;;;;;;4.48;79.23;100733.03;5094233;28;20391;-42
2023/01/03 06:41:16;;;;;;;;;;;;;;;4.73;80.08;100749.25;5093697;28;19916;-42
2023/01/03 06:43:42;;;;;;;;;;;;;;;4.76;79.16;100754.22;5093558;28;20034;-43
2023/01/03 06:54:28;;;;;;;;;;;;;;;5.48;77.32;100764.19;5094144;28;20024;-43
2023/01/03 06:56:54;;;;;;;;;;;;;;;5.47;76.73;100761.69;5092024;28;19912;-43
2023/01/03 06:59:19;;;;;;;;;;;;;;;5.40;78.16;100761.41;5083199;28;19927;-43
2023/01/03 07:01:45;;;;;;;;;;;;;;;5.50;78.37;100761.38;5083736;28;19916;-43
2023/01/03 07:04:11;;;;;;;;;;;;;;;5.62;77.89;100764.69;5073784;28;19919;-44
2023/01/03 07:06:37;;;;;;;;;;;;;;;5.84;77.81;100761.63;5073058;28;19916;-43
2023/01/03 07:09:02;;;;;;;;;;;;;;;6.29;76.38;100759.16;5072904;28;19916;-43
2023/01/03 07:11:27;;;;;;;;;;;;;;;6.32;76.32;100757.06;5072638;28;19980;-43
2023/01/03 07:13:58;;;;;;;;;;;;;;;6.40;76.04;100754.47;5072695;28;20027;-43
2023/01/03 07:16:25;;;;;;;;;;;;;;;6.85;73.92;100760.63;5072482;28;20283;-42
2023/01/03 07:18:51;;;;;;;;;;;;;;;7.15;71.90;100763.81;5072813;28;19927;-43
2023/01/03 07:21:16;;;;;;;;;;;;;;;7.16;72.25;100765.44;5071706;28;19916;-43
2023/01/03 07:23:41;;;;;;;;;;;;;;;7.57;70.83;100763.03;5070861;28;20284;-44
2023/01/03 07:26:07;;;;;;;;;;;;;;;7.70;70.59;100763.41;5071223;28;19913;-44
2023/01/03 07:28:32;;;;;;;;;;;;;;;8.02;69.23;100762.69;5071046;28;19990;-42
2023/01/03 07:31:01;;;;;;;;;;;;;;;8.32;68.23;100764.88;5071036;28;19913;-42
2023/01/03 07:33:27;;;;;;;;;;;;;;;8.89;66.55;100764.97;5071106;28;19952;-42
2023/01/03 07:35:57;;;;;;;;;;;;;;;8.97;66.46;100767.59;5071002;28;19955;-42
2023/01/03 07:38:22;;;;;;;;;;;;;;;9.33;64.58;100769.03;5072133;28;20301;-42
2023/01/03 07:40:48;;;;;;;;;;;;;;;9.43;65.76;100760.88;5071794;28;19919;-42
2023/01/03 07:45:57;;;;;;;;;;;;;;;9.82;63.40;100771.47;5081048;28;20013;-42
2023/01/03 07:48:22;;;;;;;;;;;;;;;9.61;64.99;100765.94;5092433;28;20341;-43
2023/01/03 07:50:47;;;;;;;;;;;;;;;9.63;65.15;100763.94;5091895;28;20378;-43
2023/01/03 07:53:15;;;;;;;;;;;;;;;9.77;63.22;100772.00;5091978;28;19912;-43
2023/01/03 07:55:41;;;;;;;;;;;;;;;9.30;64.97;100766.72;5092273;28;20386;-43
2023/01/03 07:58:06;;;;;;;;;;;;;;;9.17;66.06;100761.91;5092347;28;20122;-41
2023/01/03 08:00:31;;;;;;;;;;;;;;;9.08;66.50;100763.78;5092213;28;20262;-42
2023/01/03 08:02:57;;;;;;;;;;;;;;;9.57;64.95;100768.94;5092105;28;19912;-43
2023/01/03 08:05:23;;;;;;;;;;;;;;;9.68;63.95;100759.75;5091720;28;19916;-43
2023/01/03 08:07:48;;;;;;;;;;;;;;;10.07;63.66;100763.38;5091947;28;20347;-42
2023/01/03 08:13:17;;;;;;;;;;;;;;;10.18;63.30;100770.97;5075075;28;19923;-42
2023/01/03 08:15:46;;;;;;;;;;;;;;;10.07;63.75;100758.06;5091163;28;19912;-42
2023/01/03 08:18:12;;;;;;;;;;;;;;;10.06;63.98;100759.91;5090961;28;19927;-42
2023/01/03 08:20:37;;;;;;;;;;;;;;;10.52;62.74;100762.59;5090310;28;20015;-42
2023/01/03 08:23:02;;;;;;;;;;;;;;;11.08;61.04;100756.97;5091221;28;20290;-41
2023/01/03 08:25:28;;;;;;;;;;;;;;;11.37;59.04;100749.19;5091304;28;19912;-42
2023/01/03 08:27:56;;;;;;;;;;;;;;;11.03;60.36;100754.03;5091402;28;19912;-43
2023/01/03 08:30:22;;;;;;;;;;;;;;;11.37;59.37;100749.19;5091653;28;20006;-43
2023/01/03 08:32:47;;;;;;;;;;;;;;;11.23;60.73;100740.16;5091575;28;19973;-43
2023/01/03 08:35:14;;;;;;;;;;;;;;;11.44;59.30;100742.94;5091543;28;19912;-43
2023/01/03 08:37:40;;;;;;;;;;;;;;;11.48;59.55;100743.38;5091955;28;19912;-43
2023/01/03 08:40:06;;;;;;;;;;;;;;;11.89;58.29;100742.84;5089652;28;20327;-43
2023/01/03 08:42:31;;;;;;;;;;;;;;;12.11;56.75;100738.41;5091235;28;19912;-43
2023/01/03 08:45:00;;;;;;;;;;;;;;;12.11;57.51;100733.09;5091220;28;19912;-43
2023/01/03 08:47:27;;;;;;;;;;;;;;;12.30;58.80;100740.47;5091123;28;20024;-43
2023/01/03 08:49:53;;;;;;;;;;;;;;;13.01;56.26;100728.91;5091161;28;19934;-43
2023/01/03 08:52:18;;;;;;;;;;;;;;;13.46;53.66;100732.09;5091119;28;20428;-43
2023/01/03 08:54:44;;;;;;;;;;;;;;;14.54;54.46;100730.50;5091237;28;20014;-43
2023/01/03 08:57:09;;;;;;;;;;;;;;;15.23;50.14;100731.91;5089539;28;19912;-43
2023/01/03 08:59:34;;;;;;;;;;;;;;;15.57;48.30;100724.59;5091572;28;19922;-43
2023/01/03 09:02:00;;;;;;;;;;;;;;;15.49;47.58;100720.28;5091237;28;19919;-43
2023/01/03 09:04:25;;;;;;;;;;;;;;;15.11;48.58;100715.66;5090905;28;19916;-44
2023/01/03 09:06:51;;;;;;;;;;;;;;;15.22;48.31;100716.88;5090849;28;19981;-43
2023/01/03 09:09:16;;;;;;;;;;;;;;;15.03;49.16;100714.00;5090804;28;19922;-43
2023/01/03 09:11:41;;;;;;;;;;;;;;;15.64;46.73;100714.66;5090657;28;19916;-43
2023/01/03 09:14:07;;;;;;;;;;;;;;;15.87;47.35;100710.66;5090966;28;19937;-43
2023/01/03 09:16:32;;;;;;;;;;;;;;;15.78;46.60;100710.91;5090543;28;19912;-44
2023/01/03 09:18:57;;;;;;;;;;;;;;;15.73;47.24;100700.00;5090743;28;19920;-44
2023/01/03 09:21:23;;;;;;;;;;;;;;;16.63;45.34;100692.78;5090913;28;19912;-44
2023/01/03 09:23:48;;;;;;;;;;;;;;;16.80;45.85;100693.84;5090588;28;19923;-44
2023/01/03 09:26:13;;;;;;;;;;;;;;;16.56;43.81;100684.75;5090624;28;19955;-44
2023/01/03 09:28:39;;;;;;;;;;;;;;;16.85;44.41;100687.81;5090785;28;20015;-43
2023/01/03 09:31:04;;;;;;;;;;;;;;;16.59;44.36;100674.41;5090335;28;20367;-44
2023/01/03 09:33:29;;;;;;;;;;;;;;;17.02;44.25;100672.78;5090856;28;20613;-43
2023/01/03 09:35:54;;;;;;;;;;;;;;;16.64;44.23;100671.06;5090501;28;20384;-44
2023/01/03 09:38:20;;;;;;;;;;;;;;;16.86;43.56;100658.03;5090567;28;19916;-44
2023/01/03 09:40:46;;;;;;;;;;;;;;;17.41;43.52;100664.47;5090657;28;19916;-44
2023/01/03 09:43:16;;;;;;;;;;;;;;;17.42;43.86;100658.88;5088293;28;19912;-44
2023/01/03 09:45:44;;;;;;;;;;;;;;;17.58;42.09;100658.22;5078712;28;19920;-44
2023/01/03 09:48:14;;;;;;;;;;;;;;;17.89;41.92;100656.38;5080092;28;19916;-44
2023/01/03 09:50:41;;;;;;;;;;;;;;;17.82;41.43;100641.34;5090075;28;19912;-42
2023/01/03 10:04:45;;;;;;;;;;;;;;;16.12;44.31;100614.06;5090541;28;19981;-43
2023/01/03 10:07:26;;;;;;;;;;;;;;;17.26;42.46;100616.44;5090323;28;20403;-43
2023/01/03 10:10:10;;;;;;;;;;;;;;;17.61;41.80;100602.31;5093883;28;19919;-43
2023/01/03 10:12:46;;;;;;;;;;;;;;;17.22;42.53;100613.38;5093997;28;19915;-43
2023/01/03 10:15:26;;;;;;;;;;;;;;;17.59;42.17;100605.22;5094095;28;20003;-42
2023/01/03 10:18:10;;;;;;;;;;;;;;;17.99;41.84;100610.03;5093678;28;19970;-42
2023/01/03 10:20:38;;;;;;;;;;;;;;;18.15;40.98;100595.09;5093805;28;19924;-43
2023/01/03 10:23:05;;;;;;;;;;;;;;;17.96;41.30;100595.16;5094217;28;19916;-43
2023/01/03 10:25:30;;;;;;;;;;;;;;;17.86;40.61;100592.25;5094719;28;19912;-43
2023/01/03 10:28:08;;;;;;;;;;;;;;;18.14;39.97;100585.34;5094478;28;20348;-44
2023/01/03 10:30:50;;;;;;;;;;;;;;;17.76;41.61;100578.47;5094247;28;20017;-43
2023/01/03 10:33:35;;;;;;;;;;;;;;;18.52;41.64;100581.38;5094244;28;19912;-44
2023/01/03 10:36:00;;;;;;;;;;;;;;;18.78;39.85;100565.75;5094024;28;19912;-43
2023/01/03 10:38:26;;;;;;;;;;;;;;;18.68;40.09;100567.19;5094050;28;19918;-45
2023/01/03 10:40:56;;;;;;;;;;;;;;;18.46;39.99;100564.28;5093823;28;20042;-44
2023/01/03 10:43:24;;;;;;;;;;;;;;;18.43;40.45;100563.91;5093620;28;19967;-44
2023/01/03 10:45:54;;;;;;;;;;;;;;;18.06;40.51;100554.19;5093880;28;19912;-43
2023/01/03 10:48:20;;;;;;;;;;;;;;;18.10;40.26;100554.56;5093937;28;19912;-43
2023/01/03 10:50:46;;;;;;;;;;;;;;;18.23;41.21;100553.50;5093706;28;20386;-43
2023/01/03 10:53:12;;;;;;;;;;;;;;;18.58;40.45;100539.19;5093743;28;20298;-43
2023/01/03 10:55:58;;;;;;;;;;;;;;;18.30;39.54;100544.25;5093060;28;19916;-42
2023/01/03 10:58:25;;;;;;;;;;;;;;;18.26;40.10;100539.56;5093572;28;19943;-43
2023/01/03 11:00:52;;;;;;;;;;;;;;;18.84;40.75;100532.47;5093088;28;19920;-43
2023/01/03 11:03:18;;;;;;;;;;;;;;;19.06;39.99;100533.47;5093249;28;20127;-42
2023/01/03 11:05:45;;;;;;;;;;;;;;;19.44;39.33;100531.16;5093152;28;19912;-42
2023/01/03 11:08:19;;;;;;;;;;;;;;;19.73;38.27;100529.28;5094082;28;19912;-41
2023/01/03 11:10:54;;;;;;;;;;;;;;;19.86;37.74;100520.84;5093425;28;19996;-44
2023/01/03 11:13:23;;;;;;;;;;;;;;;19.99;36.58;100521.56;5092846;28;19913;-42
2023/01/03 11:15:52;;;;;;;;;;;;;;;18.70;38.42;100513.84;5092894;28;20052;-43
2023/01/03 11:18:19;;;;;;;;;;;;;;;18.15;39.88;100511.59;5092926;28;19923;-43
2023/01/03 11:21:00;;;;;;;;;;;;;;;19.00;39.44;100512.84;5091878;28;19965;-43
2023/01/03 11:23:38;;;;;;;;;;;;;;;19.41;39.09;100501.97;5092546;28;20307;-45
2023/01/03 11:26:18;;;;;;;;;;;;;;;19.21;37.69;100492.47;5092985;28;19935;-44
2023/01/03 11:28:43;;;;;;;;;;;;;;;17.93;39.75;100487.09;5092398;28;19919;-43
2023/01/03 11:31:27;;;;;;;;;;;;;;;18.50;38.88;100489.97;5092719;28;20003;-43
2023/01/03 11:34:11;;;;;;;;;;;;;;;19.01;38.79;100479.41;5092459;28;19912;-43
2023/01/03 11:36:42;;;;;;;;;;;;;;;19.74;37.05;100479.59;5092899;28;19976;-43
2023/01/03 11:39:10;;;;;;;;;;;;;;;19.87;36.86;100486.56;5092457;28;19920;-41
2023/01/03 11:41:45;;;;;;;;;;;;;;;19.15;37.77;100477.22;5092802;28;19912;-42
2023/01/03 11:44:29;;;;;;;;;;;;;;;19.68;36.92;100464.34;5092750;28;19912;-43
2023/01/03 11:47:06;;;;;;;;;;;;;;;19.69;36.60;100464.13;5092689;28;19961;-43
2023/01/03 11:49:43;;;;;;;;;;;;;;;19.02;37.73;100459.50;5092370;28;20018;-44
2023/01/03 11:52:09;;;;;;;;;;;;;;;19.42;37.70;100463.97;5092548;28;19912;-46
2023/01/03 11:54:47;;;;;;;;;;;;;;;19.96;36.12;100451.84;5092375;28;19919;-43
2023/01/03 11:57:23;;;;;;;;;;;;;;;20.21;36.22;100457.59;5092333;28;19912;-43
2023/01/03 11:59:56;;;;;;;;;;;;;;;20.40;35.92;100447.28;5092554;28;19920;-42
2023/01/03 12:02:32;;;;;;;;;;;;;;;20.85;35.53;100440.81;5092417;28;19939;-43
2023/01/03 12:05:23;;;;;;;;;;;;;;;20.12;35.48;100440.16;5092026;28;19916;-44
2023/01/03 12:07:49;;;;;;;;;;;;;;;20.40;35.74;100441.06;5091828;28;19919;-43
2023/01/03 12:10:29;;;;;;;;;;;;;;;20.22;36.01;100439.50;5092663;28;19912;-41
2023/01/03 12:12:57;;;;;;;;;;;;;;;20.56;35.70;100439.38;5091783;28;19915;-44
2023/01/03 12:15:25;;;;;;;;;;;;;;;20.86;34.52;100433.50;5092126;28;19920;-43
2023/01/03 12:17:53;;;;;;;;;;;;;;;20.93;34.76;100430.63;5091842;28;19943;-44
2023/01/03 12:20:21;;;;;;;;;;;;;;;20.95;33.49;100423.88;5091718;28;19977;-42
2023/01/03 12:22:51;;;;;;;;;;;;;;;20.79;34.60;100427.47;5091632;28;19998;-43
2023/01/03 12:25:16;;;;;;;;;;;;;;;20.87;34.69;100421.63;5091586;28;19912;-43
2023/01/03 12:27:45;;;;;;;;;;;;;;;20.51;35.02;100426.63;5091445;28;20324;-43
2023/01/03 12:30:29;;;;;;;;;;;;;;;20.82;34.09;100422.38;5091011;28;19942;-42
2023/01/03 12:32:59;;;;;;;;;;;;;;;20.77;34.27;100422.34;5091355;28;19965;-42
2023/01/03 12:35:31;;;;;;;;;;;;;;;19.90;36.58;100416.66;5091289;28;19969;-42
2023/01/03 12:37:57;;;;;;;;;;;;;;;20.30;35.33;100414.75;5091635;28;20018;-41
2023/01/03 12:40:22;;;;;;;;;;;;;;;20.21;35.26;100419.75;5091851;28;20375;-44
2023/01/03 12:43:08;;;;;;;;;;;;;;;19.98;36.13;100412.72;5091445;28;20307;-43
2023/01/03 12:45:33;;;;;;;;;;;;;;;19.97;36.03;100413.78;5091520;28;19934;-42
2023/01/03 12:48:04;;;;;;;;;;;;;;;19.54;36.77;100402.59;5091214;28;20344;-43
2023/01/03 12:50:36;;;;;;;;;;;;;;;19.58;36.74;100408.34;5091328;28;19912;-43
2023/01/03 12:53:04;;;;;;;;;;;;;;;19.60;36.97;100405.38;5091360;28;19961;-42
2023/01/03 12:55:47;;;;;;;;;;;;;;;19.86;35.62;100407.41;5091327;28;19917;-42
2023/01/03 12:58:15;;;;;;;;;;;;;;;19.62;36.59;100401.38;5092565;28;20236;-43
2023/01/03 13:00:52;;;;;;;;;;;;;;;19.19;36.43;100400.19;5091285;28;19916;-41
2023/01/03 13:03:31;;;;;;;;;;;;;;;19.35;36.17;100401.22;5090998;28;19912;-41
2023/01/03 13:06:03;;;;;;;;;;;;;;;19.28;36.95;100405.97;5091108;28;19942;-41
2023/01/03 13:08:30;;;;;;;;;;;;;;;19.17;36.68;100404.16;5091161;28;19916;-41
2023/01/03 13:10:58;;;;;;;;;;;;;;;18.76;37.85;100391.56;5091017;28;20376;-42
2023/01/03 13:13:24;;;;;;;;;;;;;;;18.47;38.19;100406.94;5091214;28;19920;-41
2023/01/03 13:15:49;;;;;;;;;;;;;;;19.04;36.91;100407.97;5091243;28;19912;-42
2023/01/03 13:18:34;;;;;;;;;;;;;;;19.29;36.66;100402.22;5091030;28;19960;-40
2023/01/03 13:21:00;;;;;;;;;;;;;;;18.92;36.97;100405.34;5090307;28;20049;-42
2023/01/03 13:23:54;;;;;;;;;;;;;;;18.74;37.74;100401.78;5090117;28;19940;-41
2023/01/03 13:26:20;;;;;;;;;;;;;;;18.88;37.84;100404.22;5090723;28;20057;-41
2023/01/03 13:28:45;;;;;;;;;;;;;;;18.98;37.68;100401.69;5090604;28;19916;-40
2023/01/03 13:31:14;;;;;;;;;;;;;;;18.82;37.60;100406.00;5090534;28;20434;-42
2023/01/03 13:33:55;;;;;;;;;;;;;;;18.95;37.22;100404.88;5090546;28;20112;-41
2023/01/03 13:36:21;;;;;;;;;;;;;;;18.91;37.88;100409.13;5090614;28;19919;-41
2023/01/03 13:38:47;;;;;;;;;;;;;;;18.52;38.22;100385.47;5090838;28;19912;-42
2023/01/03 13:41:31;;;;;;;;;;;;;;;17.97;39.40;100394.03;5090315;28;20375;-42
2023/01/03 13:44:05;;;;;;;;;;;;;;;17.29;40.83;100398.13;5090106;28;20308;-43
2023/01/03 13:46:31;;;;;;;;;;;;;;;17.83;40.23;100396.13;5090507;28;19912;-43